createdAt,value
2023-02-17T00:00:33.745Z,11.50
2023-02-17T00:02:35.743Z,11.50
2023-02-17T00:04:37.470Z,11.50
2023-02-17T00:06:39.403Z,11.50
2023-02-17T00:08:41.343Z,11.50
2023-02-17T00:10:45.227Z,11.50
2023-02-17T00:12:46.956Z,11.50
2023-02-17T00:14:48.699Z,11.50
2023-02-17T00:16:50.448Z,11.60
2023-02-17T00:18:54.420Z,11.60
2023-02-17T00:20:58.534Z,11.50
2023-02-17T00:23:00.333Z,11.50
2023-02-17T00:25:02.128Z,11.50
2023-02-17T00:27:06.948Z,11.50
2023-02-17T00:29:08.697Z,11.50
2023-02-17T00:31:15.038Z,11.50
2023-02-17T00:33:16.788Z,11.50
2023-02-17T00:35:18.496Z,11.50
2023-02-17T00:37:20.155Z,11.50
2023-02-17T00:39:21.997Z,11.50
2023-02-17T00:41:30.802Z,11.50
2023-02-17T00:43:34.797Z,11.50
2023-02-17T00:45:36.565Z,11.50
2023-02-17T00:47:38.263Z,11.50
2023-02-17T00:49:42.920Z,11.50
2023-02-17T00:51:45.429Z,11.50
2023-02-17T00:53:47.228Z,11.50
2023-02-17T00:55:50.195Z,11.50
2023-02-17T00:57:52.228Z,11.50
2023-02-17T00:59:53.872Z,11.60
2023-02-17T01:01:55.778Z,11.60
2023-02-17T01:03:57.539Z,11.60
2023-02-17T01:05:59.378Z,11.60
2023-02-17T01:08:01.029Z,11.60
2023-02-17T01:10:04.097Z,11.70
2023-02-17T01:12:05.900Z,11.60
2023-02-17T01:14:08.396Z,11.60
2023-02-17T01:16:21.383Z,11.70
2023-02-17T01:18:25.807Z,11.70
2023-02-17T01:20:37.234Z,11.60
2023-02-17T01:22:40.100Z,11.60
2023-02-17T01:24:42.588Z,11.60
2023-02-17T01:26:44.340Z,11.60
2023-02-17T01:28:46.503Z,11.60
2023-02-17T01:30:49.403Z,11.60
2023-02-17T01:32:51.214Z,11.60
2023-02-17T01:34:52.933Z,11.60
2023-02-17T01:36:54.766Z,11.60
2023-02-17T01:38:58.830Z,11.60
2023-02-17T01:41:00.627Z,11.60
2023-02-17T01:43:02.728Z,11.60
2023-02-17T01:45:33.578Z,11.60
2023-02-17T01:47:35.370Z,11.60
2023-02-17T01:49:41.477Z,11.50
2023-02-17T01:51:44.914Z,11.50
2023-02-17T01:53:55.648Z,11.50
2023-02-17T01:55:59.870Z,11.50
2023-02-17T01:58:04.426Z,11.50
2023-02-17T02:00:10.133Z,11.40
2023-02-17T02:02:15.290Z,11.40
2023-02-17T02:04:20.878Z,11.40
2023-02-17T02:06:27.154Z,11.40
2023-02-17T02:08:36.425Z,11.40
2023-02-17T02:10:38.978Z,11.40
2023-02-17T02:12:43.022Z,11.40
2023-02-17T02:14:50.757Z,11.40
2023-02-17T02:17:18.579Z,11.50
2023-02-17T02:19:56.057Z,11.40
2023-02-17T02:22:14.802Z,11.50
2023-02-17T02:24:30.580Z,11.40
2023-02-17T02:26:53.940Z,11.40
2023-02-17T02:29:16.754Z,11.50
2023-02-17T02:31:42.201Z,11.40
2023-02-17T02:34:06.650Z,11.40
2023-02-17T02:36:17.831Z,11.40
2023-02-17T02:38:43.150Z,11.40
2023-02-17T02:40:53.418Z,11.40
2023-02-17T02:42:57.080Z,11.40
2023-02-17T02:44:59.132Z,11.40
2023-02-17T02:47:07.485Z,11.40
2023-02-17T02:49:09.920Z,11.40
2023-02-17T02:51:17.217Z,11.30
2023-02-17T02:53:36.571Z,11.40
2023-02-17T02:56:16.590Z,11.40
2023-02-17T02:58:36.929Z,11.40
2023-02-17T03:01:02.165Z,11.40
2023-02-17T03:03:36.625Z,11.30
2023-02-17T03:06:07.603Z,11.30
2023-02-17T03:08:20.741Z,11.30
2023-02-17T03:10:22.615Z,11.30
2023-02-17T03:12:28.107Z,11.30
2023-02-17T03:14:37.668Z,11.20
2023-02-17T03:16:41.429Z,11.20
2023-02-17T03:18:43.155Z,11.20
2023-02-17T03:21:09.886Z,11.20
2023-02-17T03:23:11.810Z,11.20
2023-02-17T03:25:14.844Z,11.20
2023-02-17T03:27:20.118Z,11.20
2023-02-17T03:29:23.105Z,11.30
2023-02-17T03:31:25.610Z,11.30
2023-02-17T03:33:29.626Z,11.30
2023-02-17T03:35:31.345Z,11.30
2023-02-17T03:37:33.172Z,11.30
2023-02-17T03:39:36.344Z,11.30
2023-02-17T03:41:38.018Z,11.30
2023-02-17T03:43:39.991Z,11.30
2023-02-17T03:45:41.737Z,11.40
2023-02-17T03:47:43.508Z,11.40
2023-02-17T03:49:45.626Z,11.30
2023-02-17T03:51:48.916Z,11.40
2023-02-17T03:53:51.461Z,11.30
2023-02-17T03:55:53.134Z,11.40
2023-02-17T03:57:54.800Z,11.40
2023-02-17T03:59:56.480Z,11.40
2023-02-17T04:01:58.180Z,11.40
2023-02-17T04:03:59.931Z,11.40
2023-02-17T04:06:01.893Z,11.40
2023-02-17T04:08:03.648Z,11.50
2023-02-17T04:10:08.435Z,11.50
2023-02-17T04:12:13.237Z,11.50
2023-02-17T04:14:14.943Z,11.50
2023-02-17T04:16:17.420Z,11.50
2023-02-17T04:18:20.080Z,11.50
2023-02-17T04:20:22.269Z,11.50
2023-02-17T04:22:24.138Z,11.50
2023-02-17T04:24:26.309Z,11.60
2023-02-17T04:26:28.660Z,11.50
2023-02-17T04:28:30.501Z,11.50
2023-02-17T04:30:34.364Z,11.50
2023-02-17T04:32:36.134Z,11.50
2023-02-17T04:34:37.884Z,11.50
2023-02-17T04:36:39.558Z,11.50
2023-02-17T04:38:41.446Z,11.50
2023-02-17T04:40:45.236Z,11.50
2023-02-17T04:42:46.938Z,11.50
2023-02-17T04:44:48.679Z,11.50
2023-02-17T04:46:50.375Z,11.60
2023-02-17T04:48:55.128Z,11.60
2023-02-17T04:50:56.903Z,11.50
2023-02-17T04:52:58.729Z,11.60
2023-02-17T04:55:00.432Z,11.60
2023-02-17T04:57:07.294Z,11.60
2023-02-17T04:59:09.244Z,11.60
2023-02-17T05:01:14.654Z,11.60
2023-02-17T05:03:19.730Z,11.60
2023-02-17T05:05:21.409Z,11.60
2023-02-17T05:07:25.198Z,11.60
2023-02-17T05:09:27.135Z,11.60
2023-02-17T05:11:28.790Z,11.70
2023-02-17T05:13:30.423Z,11.60
2023-02-17T05:15:34.725Z,11.70
2023-02-17T05:17:36.672Z,11.70
2023-02-17T05:19:38.373Z,11.70
2023-02-17T05:21:40.144Z,11.70
2023-02-17T05:23:43.992Z,11.70
2023-02-17T05:25:45.799Z,11.70
2023-02-17T05:27:47.561Z,11.70
2023-02-17T05:29:49.298Z,11.80
2023-02-17T05:31:51.118Z,11.80
2023-02-17T05:33:54.643Z,11.80
2023-02-17T05:35:56.619Z,11.80
2023-02-17T05:38:00.461Z,11.70
2023-02-17T05:40:02.228Z,11.80
2023-02-17T05:42:04.085Z,11.80
2023-02-17T05:44:05.778Z,11.80
2023-02-17T05:46:07.800Z,11.80
2023-02-17T05:48:09.647Z,11.80
2023-02-17T05:50:11.689Z,11.80
2023-02-17T05:52:13.559Z,11.70
2023-02-17T05:54:15.252Z,11.80
2023-02-17T05:56:17.148Z,11.80
2023-02-17T05:58:18.804Z,11.80
2023-02-17T06:00:20.676Z,11.80
2023-02-17T06:02:22.473Z,11.80
2023-02-17T06:04:26.482Z,11.80
2023-02-17T06:06:33.560Z,11.80
2023-02-17T06:08:40.539Z,11.80
2023-02-17T06:10:45.187Z,11.90
2023-02-17T06:12:46.933Z,11.90
2023-02-17T06:14:49.641Z,11.90
2023-02-17T06:16:51.405Z,11.90
2023-02-17T06:18:55.558Z,11.90
2023-02-17T06:20:58.708Z,11.90
2023-02-17T06:23:00.434Z,11.90
2023-02-17T06:25:02.253Z,11.90
2023-02-17T06:27:07.199Z,11.90
2023-02-17T06:29:08.927Z,11.90
2023-02-17T06:31:10.856Z,11.90
2023-02-17T06:33:12.845Z,11.90
2023-02-17T06:35:14.486Z,11.90
2023-02-17T06:37:16.143Z,11.90
2023-02-17T06:39:17.853Z,11.90
2023-02-17T06:41:19.520Z,11.90
2023-02-17T06:43:24.296Z,11.90
2023-02-17T06:45:37.141Z,11.90
2023-02-17T06:47:39.054Z,11.90
2023-02-17T06:49:41.185Z,11.90
2023-02-17T06:51:49.155Z,11.90
2023-02-17T06:53:50.994Z,11.90
2023-02-17T06:55:55.386Z,11.90
2023-02-17T06:57:58.566Z,11.80
2023-02-17T07:00:00.570Z,11.90
2023-02-17T07:02:02.924Z,11.90
2023-02-17T07:04:04.875Z,11.80
2023-02-17T07:06:07.653Z,11.80
2023-02-17T07:08:10.758Z,11.90
2023-02-17T07:10:14.685Z,11.80
2023-02-17T07:12:16.381Z,11.80
2023-02-17T07:14:18.088Z,11.90
2023-02-17T07:16:19.809Z,11.90
2023-02-17T07:18:21.712Z,11.90
2023-02-17T07:20:23.507Z,11.90
2023-02-17T07:22:28.715Z,11.90
2023-02-17T07:24:33.884Z,11.90
2023-02-17T07:26:40.730Z,11.90
2023-02-17T07:28:48.562Z,11.90
2023-02-17T07:30:50.331Z,11.80
2023-02-17T07:32:52.156Z,11.90
2023-02-17T07:34:53.952Z,11.80
2023-02-17T07:36:55.593Z,11.80
2023-02-17T07:38:57.410Z,11.90
2023-02-17T07:41:05.114Z,11.90
2023-02-17T07:43:08.061Z,11.90
2023-02-17T07:45:10.193Z,11.90
2023-02-17T07:47:12.050Z,11.90
2023-02-17T07:49:14.713Z,11.90
2023-02-17T07:51:19.727Z,11.90
2023-02-17T07:53:21.472Z,12.00
2023-02-17T07:55:24.277Z,11.90
2023-02-17T07:57:27.768Z,11.90
2023-02-17T07:59:29.588Z,11.90
2023-02-17T08:01:33.939Z,12.00
2023-02-17T08:03:35.846Z,12.00
2023-02-17T08:05:40.741Z,12.00
2023-02-17T08:07:44.639Z,12.00
2023-02-17T08:10:05.139Z,12.00
2023-02-17T08:12:38.617Z,11.90
2023-02-17T08:14:40.476Z,11.90
2023-02-17T08:16:42.731Z,11.90
2023-02-17T08:18:44.637Z,11.90
2023-02-17T08:20:51.415Z,11.90
2023-02-17T08:22:53.386Z,11.90
2023-02-17T08:24:56.361Z,11.90
2023-02-17T08:26:59.262Z,11.90
2023-02-17T08:29:03.394Z,11.90
2023-02-17T08:31:17.109Z,11.90
2023-02-17T08:33:19.037Z,12.00
2023-02-17T08:35:24.031Z,12.00
2023-02-17T08:37:26.402Z,12.00
2023-02-17T08:39:28.740Z,11.90
2023-02-17T08:41:36.161Z,12.00
2023-02-17T08:43:37.830Z,12.00
2023-02-17T08:45:40.767Z,12.00
2023-02-17T08:47:43.043Z,12.10
2023-02-17T08:49:44.730Z,12.00
2023-02-17T08:51:47.184Z,12.00
2023-02-17T08:53:50.357Z,12.00
2023-02-17T08:55:52.116Z,12.00
2023-02-17T08:57:54.012Z,12.00
2023-02-17T08:59:57.924Z,12.10
2023-02-17T09:02:01.639Z,12.10
2023-02-17T09:04:10.380Z,12.10
2023-02-17T09:06:15.697Z,12.10
2023-02-17T09:08:17.422Z,12.10
2023-02-17T09:10:19.294Z,12.10
2023-02-17T09:12:21.099Z,12.20
2023-02-17T09:14:26.120Z,12.20
2023-02-17T09:16:28.160Z,12.20
2023-02-17T09:18:32.749Z,12.30
2023-02-17T09:20:39.463Z,12.30
2023-02-17T09:22:41.247Z,12.30
2023-02-17T09:24:44.138Z,12.30
2023-02-17T09:26:48.301Z,12.30
2023-02-17T09:28:50.359Z,12.40
2023-02-17T09:30:54.725Z,12.40
2023-02-17T09:32:57.348Z,12.40
2023-02-17T09:35:01.516Z,12.40
2023-02-17T09:37:03.918Z,12.40
2023-02-17T09:39:06.102Z,12.50
2023-02-17T09:41:19.301Z,12.50
2023-02-17T09:43:29.185Z,12.50
2023-02-17T09:45:35.928Z,12.40
2023-02-17T09:47:47.096Z,12.40
2023-02-17T09:49:56.955Z,12.50
2023-02-17T09:52:17.854Z,12.50
2023-02-17T09:54:24.996Z,12.50
2023-02-17T09:56:35.087Z,12.50
2023-02-17T09:58:52.876Z,12.50
2023-02-17T10:00:59.644Z,12.50
2023-02-17T10:03:11.398Z,12.50
2023-02-17T10:05:19.220Z,12.50
2023-02-17T10:07:27.049Z,12.50
2023-02-17T10:09:31.408Z,12.50
2023-02-17T10:11:36.334Z,12.50
2023-02-17T10:13:41.249Z,12.60
2023-02-17T10:15:54.075Z,12.60
2023-02-17T10:18:10.660Z,12.60
2023-02-17T10:20:20.800Z,12.60
2023-02-17T10:22:24.433Z,12.60
2023-02-17T10:24:26.186Z,12.60
2023-02-17T10:26:53.473Z,12.60
2023-02-17T10:29:30.335Z,12.60
2023-02-17T10:31:45.910Z,12.60
2023-02-17T10:34:05.511Z,12.60
2023-02-17T10:36:32.818Z,12.60
2023-02-17T10:38:51.339Z,12.60
2023-02-17T10:40:55.453Z,12.60
2023-02-17T10:43:00.496Z,12.60
2023-02-17T10:45:31.673Z,12.60
2023-02-17T10:47:36.613Z,12.70
2023-02-17T10:49:45.652Z,12.60
2023-02-17T10:51:47.574Z,12.60
2023-02-17T10:54:04.399Z,12.70
2023-02-17T10:56:25.754Z,12.70
2023-02-17T10:58:56.843Z,12.70
2023-02-17T11:00:58.887Z,12.70
2023-02-17T11:03:00.616Z,12.70
2023-02-17T11:05:02.656Z,12.70
2023-02-17T11:07:12.556Z,12.70
2023-02-17T11:09:28.452Z,12.70
2023-02-17T11:11:34.779Z,12.70
2023-02-17T11:13:42.515Z,12.70
2023-02-17T11:15:48.665Z,12.70
2023-02-17T11:17:51.139Z,12.80
2023-02-17T11:20:16.108Z,12.80
2023-02-17T11:22:35.247Z,12.80
2023-02-17T11:24:40.264Z,12.80
2023-02-17T11:26:42.217Z,12.80
2023-02-17T11:28:43.854Z,12.80
2023-02-17T11:30:52.009Z,12.80
2023-02-17T11:32:57.597Z,12.80
2023-02-17T11:35:07.387Z,12.90
2023-02-17T11:37:12.187Z,12.90
2023-02-17T11:39:18.080Z,12.90
2023-02-17T11:41:20.330Z,13.00
2023-02-17T11:43:25.593Z,13.00
2023-02-17T11:46:24.052Z,13.00
2023-02-17T11:48:52.171Z,13.10
2023-02-17T11:51:08.502Z,13.10
2023-02-17T11:53:44.187Z,13.10
2023-02-17T11:55:54.629Z,13.20
2023-02-17T11:58:39.961Z,13.10
2023-02-17T12:00:59.741Z,13.20
2023-02-17T12:03:47.190Z,13.20
2023-02-17T12:06:10.570Z,13.20
2023-02-17T12:08:12.452Z,13.30
2023-02-17T12:10:42.300Z,13.30
2023-02-17T12:12:48.998Z,13.40
2023-02-17T12:15:35.759Z,13.40
2023-02-17T12:17:59.172Z,13.40
2023-02-17T12:20:20.901Z,13.40
2023-02-17T12:22:32.108Z,13.50
2023-02-17T12:25:04.316Z,13.50
2023-02-17T12:27:31.707Z,13.50
2023-02-17T12:29:54.707Z,13.50
2023-02-17T12:32:11.616Z,13.60
2023-02-17T12:34:31.114Z,13.60
2023-02-17T12:36:37.590Z,13.60
2023-02-17T12:38:44.085Z,13.50
2023-02-17T12:41:20.727Z,13.60
2023-02-17T12:43:49.430Z,13.60
2023-02-17T12:45:53.674Z,13.70
2023-02-17T12:48:04.292Z,13.60
2023-02-17T12:50:19.227Z,13.60
2023-02-17T12:52:24.356Z,13.60
2023-02-17T12:54:36.524Z,13.70
2023-02-17T12:56:48.582Z,13.70
2023-02-17T12:58:52.551Z,13.60
2023-02-17T13:01:14.648Z,13.60
2023-02-17T13:03:17.634Z,13.70
2023-02-17T13:05:34.338Z,13.60
2023-02-17T13:07:57.452Z,13.60
2023-02-17T13:09:59.514Z,13.60
2023-02-17T13:12:33.445Z,13.60
2023-02-17T13:14:49.794Z,13.60
2023-02-17T13:16:51.608Z,13.70
2023-02-17T13:18:53.331Z,13.60
2023-02-17T13:21:15.660Z,13.60
2023-02-17T13:23:38.153Z,13.60
2023-02-17T13:25:42.536Z,13.60
2023-02-17T13:27:44.305Z,13.60
2023-02-17T13:29:46.375Z,13.70
2023-02-17T13:31:58.311Z,13.60
2023-02-17T13:34:00.163Z,13.70
2023-02-17T13:36:16.954Z,13.70
2023-02-17T13:38:33.996Z,13.70
2023-02-17T13:40:38.770Z,13.70
2023-02-17T13:42:44.094Z,13.70
2023-02-17T13:44:49.902Z,13.60
2023-02-17T13:46:52.415Z,13.70
2023-02-17T13:49:04.419Z,13.70
2023-02-17T13:51:24.246Z,13.70
2023-02-17T13:53:38.612Z,13.70
2023-02-17T13:55:41.791Z,13.70
2023-02-17T13:57:43.845Z,13.60
2023-02-17T13:59:45.564Z,13.70
2023-02-17T14:01:49.786Z,13.70
2023-02-17T14:03:55.010Z,13.70
2023-02-17T14:06:00.843Z,13.70
2023-02-17T14:08:12.077Z,13.70
2023-02-17T14:10:26.610Z,13.70
2023-02-17T14:12:28.804Z,13.70
2023-02-17T14:14:38.668Z,13.70
2023-02-17T14:16:43.983Z,13.70
2023-02-17T14:18:48.675Z,13.60
2023-02-17T14:21:10.622Z,13.60
2023-02-17T14:23:14.045Z,13.70
2023-02-17T14:25:27.648Z,13.70
2023-02-17T14:27:41.513Z,13.70
2023-02-17T14:29:48.767Z,13.70
2023-02-17T14:31:52.409Z,13.70
2023-02-17T14:33:55.772Z,13.80
2023-02-17T14:36:07.681Z,13.80
2023-02-17T14:38:22.925Z,13.70
2023-02-17T14:40:25.003Z,13.80
2023-02-17T14:42:26.683Z,13.70
2023-02-17T14:44:29.053Z,13.70
2023-02-17T14:46:30.778Z,13.70
2023-02-17T14:48:32.529Z,13.70
2023-02-17T14:50:35.148Z,13.60
2023-02-17T14:52:43.804Z,13.60
2023-02-17T14:54:45.711Z,13.60
2023-02-17T14:57:10.352Z,13.70
2023-02-17T14:59:12.128Z,13.70
2023-02-17T15:01:16.376Z,13.70
2023-02-17T15:03:18.396Z,13.70
2023-02-17T15:05:20.125Z,13.70
2023-02-17T15:07:22.528Z,13.70
2023-02-17T15:09:30.246Z,13.60
2023-02-17T15:11:35.574Z,13.70
2023-02-17T15:13:39.260Z,13.60
2023-02-17T15:15:45.016Z,13.60
2023-02-17T15:17:47.329Z,13.60
2023-02-17T15:19:49.275Z,13.60
2023-02-17T15:21:53.253Z,13.60
2023-02-17T15:23:56.387Z,13.60
2023-02-17T15:25:58.174Z,13.50
2023-02-17T15:27:59.895Z,13.60
2023-02-17T15:30:01.590Z,13.60
2023-02-17T15:32:10.762Z,13.60
2023-02-17T15:34:18.214Z,13.50
2023-02-17T15:36:19.918Z,13.50
2023-02-17T15:38:21.982Z,13.50
2023-02-17T15:40:26.415Z,13.50
2023-02-17T15:42:28.184Z,13.60
2023-02-17T15:44:37.890Z,13.60
2023-02-17T15:46:39.572Z,13.50
2023-02-17T15:48:42.480Z,13.50
2023-02-17T15:50:44.323Z,13.50
2023-02-17T15:52:47.368Z,13.50
2023-02-17T15:54:49.525Z,13.50
2023-02-17T15:56:52.864Z,13.50
2023-02-17T15:59:00.357Z,13.60
2023-02-17T16:01:03.969Z,13.60
2023-02-17T16:03:13.431Z,13.60
2023-02-17T16:05:17.413Z,13.60
2023-02-17T16:07:19.680Z,13.60
2023-02-17T16:09:21.617Z,13.60
2023-02-17T16:11:23.824Z,13.60
2023-02-17T16:13:27.226Z,13.60
2023-02-17T16:15:34.290Z,13.60
2023-02-17T16:17:36.006Z,13.60
2023-02-17T16:19:37.781Z,13.60
2023-02-17T16:21:39.471Z,13.60
2023-02-17T16:23:42.624Z,13.60
2023-02-17T16:25:46.206Z,13.60
2023-02-17T16:27:50.387Z,13.60
2023-02-17T16:29:52.212Z,13.60
2023-02-17T16:31:54.955Z,13.60
2023-02-17T16:34:00.150Z,13.70
2023-02-17T16:36:01.858Z,13.60
2023-02-17T16:38:12.767Z,13.70
2023-02-17T16:40:18.468Z,13.70
2023-02-17T16:42:22.475Z,13.70
2023-02-17T16:44:24.236Z,13.70
2023-02-17T16:46:34.154Z,13.70
2023-02-17T16:48:36.507Z,13.80
2023-02-17T16:50:38.158Z,13.80
2023-02-17T16:52:39.838Z,13.70
2023-02-17T16:54:41.750Z,13.80
2023-02-17T16:56:46.677Z,13.80
2023-02-17T16:58:48.390Z,13.80
2023-02-17T17:00:53.177Z,13.80
2023-02-17T17:02:57.411Z,13.80
2023-02-17T17:04:59.337Z,13.80
2023-02-17T17:07:03.159Z,13.80
2023-02-17T17:09:08.225Z,13.80
2023-02-17T17:11:18.185Z,13.80
2023-02-17T17:13:19.860Z,13.80
2023-02-17T17:15:22.047Z,13.80
2023-02-17T17:17:23.830Z,13.80
2023-02-17T17:19:26.758Z,13.80
2023-02-17T17:21:28.784Z,13.80
2023-02-17T17:23:30.541Z,13.80
2023-02-17T17:25:38.184Z,13.80
2023-02-17T17:27:41.603Z,13.80
2023-02-17T17:29:43.230Z,13.70
2023-02-17T17:31:45.492Z,13.80
2023-02-17T17:33:48.797Z,13.70
2023-02-17T17:35:50.471Z,13.80
2023-02-17T17:37:54.087Z,13.80
2023-02-17T17:39:55.794Z,13.80
2023-02-17T17:42:02.176Z,13.80
2023-02-17T17:44:05.162Z,13.80
2023-02-17T17:46:17.744Z,13.70
2023-02-17T17:48:19.671Z,13.80
2023-02-17T17:50:24.867Z,13.80
2023-02-17T17:52:26.598Z,13.80
2023-02-17T17:54:28.279Z,13.80
2023-02-17T17:56:36.037Z,13.80
2023-02-17T17:58:38.953Z,13.70
2023-02-17T18:00:40.646Z,13.80
2023-02-17T18:02:43.051Z,13.80
2023-02-17T18:04:47.343Z,13.70
2023-02-17T18:06:51.680Z,13.80
2023-02-17T18:08:56.149Z,13.80
2023-02-17T18:11:00.364Z,13.80
2023-02-17T18:13:02.198Z,13.80
2023-02-17T18:15:05.265Z,13.80
2023-02-17T18:17:15.300Z,13.70
2023-02-17T18:19:19.373Z,13.70
2023-02-17T18:21:21.076Z,13.70
2023-02-17T18:23:22.878Z,13.80
2023-02-17T18:25:25.094Z,13.80
2023-02-17T18:27:26.965Z,13.80
2023-02-17T18:29:28.936Z,13.80
2023-02-17T18:31:30.938Z,13.80
2023-02-17T18:33:32.623Z,13.80
2023-02-17T18:35:36.800Z,13.80
2023-02-17T18:37:40.894Z,13.90
2023-02-17T18:39:44.888Z,13.90
2023-02-17T18:41:46.672Z,13.90
2023-02-17T18:43:48.562Z,13.90
2023-02-17T18:45:50.413Z,13.80
2023-02-17T18:47:52.155Z,13.90
2023-02-17T18:49:54.324Z,13.90
2023-02-17T18:51:55.983Z,13.90
2023-02-17T18:53:59.447Z,13.90
2023-02-17T18:56:01.410Z,13.90
2023-02-17T18:58:03.524Z,13.90
2023-02-17T19:00:09.210Z,13.90
2023-02-17T19:02:11.512Z,13.90
2023-02-17T19:04:14.992Z,14.00
2023-02-17T19:06:19.518Z,14.00
2023-02-17T19:08:21.254Z,14.00
2023-02-17T19:10:23.895Z,14.00
2023-02-17T19:12:27.512Z,14.00
2023-02-17T19:14:32.742Z,14.00
2023-02-17T19:16:34.535Z,14.00
2023-02-17T19:18:37.189Z,14.00
2023-02-17T19:20:38.892Z,14.10
2023-02-17T19:22:40.562Z,14.00
2023-02-17T19:24:43.242Z,14.00
2023-02-17T19:26:44.937Z,14.00
2023-02-17T19:28:47.320Z,14.00
2023-02-17T19:30:49.539Z,13.90
2023-02-17T19:32:53.508Z,14.00
2023-02-17T19:34:55.207Z,14.00
2023-02-17T19:36:56.897Z,14.00
2023-02-17T19:39:00.831Z,14.00
2023-02-17T19:41:09.658Z,13.90
2023-02-17T19:43:11.579Z,13.90
2023-02-17T19:45:13.429Z,13.90
2023-02-17T19:47:15.313Z,13.90
2023-02-17T19:49:17.053Z,13.90
2023-02-17T19:51:21.295Z,13.90
2023-02-17T19:53:22.978Z,13.90
2023-02-17T19:55:27.000Z,13.90
2023-02-17T19:57:29.742Z,13.80
2023-02-17T19:59:33.467Z,13.90
2023-02-17T20:01:35.305Z,13.80
2023-02-17T20:03:37.291Z,13.80
2023-02-17T20:05:39.839Z,13.80
2023-02-17T20:07:41.583Z,13.80
2023-02-17T20:09:46.104Z,13.80
2023-02-17T20:11:49.464Z,13.80
2023-02-17T20:13:51.573Z,13.80
2023-02-17T20:16:07.458Z,13.80
2023-02-17T20:18:14.796Z,13.80
2023-02-17T20:20:16.584Z,13.80
2023-02-17T20:22:18.296Z,13.80
2023-02-17T20:24:20.070Z,13.80
2023-02-17T20:26:35.476Z,13.80
2023-02-17T20:28:39.516Z,13.80
2023-02-17T20:30:42.455Z,13.80
2023-02-17T20:32:44.124Z,13.80
2023-02-17T20:34:45.836Z,13.80
2023-02-17T20:36:49.030Z,13.80
2023-02-17T20:38:51.033Z,13.80
2023-02-17T20:40:55.042Z,13.80
2023-02-17T20:42:57.076Z,13.80
2023-02-17T20:44:58.936Z,13.80
2023-02-17T20:47:03.058Z,13.80
2023-02-17T20:49:04.781Z,13.80
2023-02-17T20:51:06.613Z,13.80
2023-02-17T20:53:08.783Z,13.70
2023-02-17T20:55:10.907Z,13.70
2023-02-17T20:57:14.921Z,13.70
2023-02-17T20:59:16.710Z,13.70
2023-02-17T21:01:19.889Z,13.70
2023-02-17T21:03:21.805Z,13.70
2023-02-17T21:05:24.507Z,13.70
2023-02-17T21:07:26.522Z,13.70
2023-02-17T21:09:28.511Z,13.70
2023-02-17T21:11:33.684Z,13.70
2023-02-17T21:13:36.269Z,13.80
2023-02-17T21:15:38.160Z,13.80
2023-02-17T21:17:40.029Z,13.80
2023-02-17T21:19:41.785Z,13.80
2023-02-17T21:21:53.060Z,13.80
2023-02-17T21:23:56.381Z,13.80
2023-02-17T21:25:58.412Z,13.70
2023-02-17T21:28:00.278Z,13.80
2023-02-17T21:30:03.639Z,13.70
2023-02-17T21:32:05.564Z,13.70
2023-02-17T21:34:09.907Z,13.70
2023-02-17T21:36:17.260Z,13.70
2023-02-17T21:38:20.828Z,13.70
2023-02-17T21:40:24.049Z,13.70
2023-02-17T21:43:01.065Z,13.70
2023-02-17T21:45:03.683Z,13.70
2023-02-17T21:47:08.181Z,13.70
2023-02-17T21:49:12.104Z,13.70
2023-02-17T21:51:21.003Z,13.70
2023-02-17T21:53:22.949Z,13.70
2023-02-17T21:55:26.167Z,13.80
2023-02-17T21:57:30.920Z,13.70
2023-02-17T21:59:32.864Z,13.70
2023-02-17T22:01:34.640Z,13.70
2023-02-17T22:03:39.365Z,13.70
2023-02-17T22:05:41.523Z,13.70
2023-02-17T22:07:43.312Z,13.70
2023-02-17T22:09:45.306Z,13.80
2023-02-17T22:11:47.109Z,13.70
2023-02-17T22:13:48.936Z,13.70
2023-02-17T22:15:58.561Z,13.70
2023-02-17T22:18:00.477Z,13.70
2023-02-17T22:20:03.305Z,13.70
2023-02-17T22:22:05.154Z,13.70
2023-02-17T22:24:07.301Z,13.70
2023-02-17T22:26:17.495Z,13.70
2023-02-17T22:28:20.474Z,13.70
2023-02-17T22:30:24.645Z,13.60
2023-02-17T22:32:26.605Z,13.60
2023-02-17T22:34:28.693Z,13.60
2023-02-17T22:36:36.170Z,13.60
2023-02-17T22:38:38.616Z,13.60
2023-02-17T22:40:41.285Z,13.50
2023-02-17T22:42:45.313Z,13.60
2023-02-17T22:44:48.609Z,13.50
2023-02-17T22:46:50.658Z,13.50
2023-02-17T22:48:56.545Z,13.50
2023-02-17T22:50:58.651Z,13.40
2023-02-17T22:53:03.727Z,13.40
2023-02-17T22:55:05.986Z,13.40
2023-02-17T22:57:07.947Z,13.40
2023-02-17T22:59:09.868Z,13.40
2023-02-17T23:01:20.696Z,13.40
2023-02-17T23:03:22.616Z,13.40
2023-02-17T23:05:24.672Z,13.40
2023-02-17T23:07:26.407Z,13.30
2023-02-17T23:09:28.117Z,13.30
2023-02-17T23:11:52.188Z,13.30
2023-02-17T23:13:53.885Z,13.30
2023-02-17T23:15:55.749Z,13.30
2023-02-17T23:17:57.531Z,13.30
2023-02-17T23:19:59.247Z,13.30
2023-02-17T23:22:07.975Z,13.30
2023-02-17T23:24:14.058Z,13.30
2023-02-17T23:26:15.880Z,13.20
2023-02-17T23:28:18.864Z,13.20
2023-02-17T23:30:22.070Z,13.20
2023-02-17T23:32:23.914Z,13.20
2023-02-17T23:34:28.433Z,13.20
2023-02-17T23:36:35.035Z,13.20
2023-02-17T23:38:40.457Z,13.20
2023-02-17T23:40:43.340Z,13.20
2023-02-17T23:42:45.431Z,13.10
2023-02-17T23:44:47.255Z,13.10
2023-02-17T23:46:51.011Z,13.10
2023-02-17T23:48:52.743Z,13.10
2023-02-17T23:51:07.768Z,13.10
2023-02-17T23:53:09.720Z,13.10
2023-02-17T23:55:11.464Z,13.10
2023-02-17T23:57:13.246Z,13.10
2023-02-17T23:59:14.993Z,13.10
